sensor_id;sensor_type;location;lat;lon;timestamp;P1;durP1;ratioP1;P2;durP2;ratioP2
32874;SDS011;40468;42.128;24.750;2024-01-30T00:01:21;13.98;;;5.20;;
32874;SDS011;40468;42.128;24.750;2024-01-30T00:02:51;16.25;;;5.35;;
32874;SDS011;40468;42.128;24.750;2024-01-30T00:04:23;12.93;;;4.82;;
32874;SDS011;40468;42.128;24.750;2024-01-30T00:05:54;10.63;;;5.05;;
32874;SDS011;40468;42.128;24.750;2024-01-30T00:07:26;10.32;;;4.60;;
32874;SDS011;40468;42.128;24.750;2024-01-30T00:08:56;10.23;;;4.43;;
32874;SDS011;40468;42.128;24.750;2024-01-30T00:10:28;11.68;;;4.53;;
32874;SDS011;40468;42.128;24.750;2024-01-30T00:11:59;14.05;;;4.38;;
32874;SDS011;40468;42.128;24.750;2024-01-30T00:13:32;11.10;;;4.30;;
32874;SDS011;40468;42.128;24.750;2024-01-30T00:15:04;12.05;;;4.50;;
32874;SDS011;40468;42.128;24.750;2024-01-30T00:16:38;8.70;;;4.20;;
32874;SDS011;40468;42.128;24.750;2024-01-30T00:18:10;12.88;;;4.40;;
32874;SDS011;40468;42.128;24.750;2024-01-30T00:19:41;8.32;;;4.18;;
32874;SDS011;40468;42.128;24.750;2024-01-30T00:21:12;9.50;;;4.05;;
32874;SDS011;40468;42.128;24.750;2024-01-30T00:22:43;11.82;;;5.25;;
32874;SDS011;40468;42.128;24.750;2024-01-30T00:24:15;10.32;;;4.20;;
32874;SDS011;40468;42.128;24.750;2024-01-30T00:25:46;12.18;;;4.40;;
32874;SDS011;40468;42.128;24.750;2024-01-30T00:27:17;11.35;;;4.13;;
32874;SDS011;40468;42.128;24.750;2024-01-30T00:28:50;13.38;;;4.40;;
32874;SDS011;40468;42.128;24.750;2024-01-30T00:30:21;9.65;;;4.78;;
32874;SDS011;40468;42.128;24.750;2024-01-30T00:31:52;12.05;;;4.90;;
32874;SDS011;40468;42.128;24.750;2024-01-30T00:33:24;12.45;;;4.68;;
32874;SDS011;40468;42.128;24.750;2024-01-30T00:34:55;12.77;;;5.07;;
32874;SDS011;40468;42.128;24.750;2024-01-30T00:36:26;11.73;;;4.88;;
32874;SDS011;40468;42.128;24.750;2024-01-30T00:37:59;10.43;;;4.63;;
32874;SDS011;40468;42.128;24.750;2024-01-30T00:39:31;13.02;;;5.57;;
32874;SDS011;40468;42.128;24.750;2024-01-30T00:41:02;13.73;;;6.18;;
32874;SDS011;40468;42.128;24.750;2024-01-30T00:42:34;14.40;;;5.72;;
32874;SDS011;40468;42.128;24.750;2024-01-30T00:44:06;14.70;;;5.45;;
32874;SDS011;40468;42.128;24.750;2024-01-30T00:45:38;12.52;;;5.07;;
32874;SDS011;40468;42.128;24.750;2024-01-30T00:47:09;15.18;;;5.15;;
32874;SDS011;40468;42.128;24.750;2024-01-30T00:48:41;17.02;;;5.30;;
32874;SDS011;40468;42.128;24.750;2024-01-30T00:50:13;13.70;;;5.93;;
32874;SDS011;40468;42.128;24.750;2024-01-30T00:51:43;15.18;;;5.75;;
32874;SDS011;40468;42.128;24.750;2024-01-30T00:53:15;13.52;;;5.80;;
32874;SDS011;40468;42.128;24.750;2024-01-30T00:54:46;15.00;;;6.57;;
32874;SDS011;40468;42.128;24.750;2024-01-30T00:56:18;15.00;;;6.55;;
32874;SDS011;40468;42.128;24.750;2024-01-30T00:57:49;17.33;;;6.40;;
32874;SDS011;40468;42.128;24.750;2024-01-30T00:59:22;18.88;;;6.57;;
32874;SDS011;40468;42.128;24.750;2024-01-30T01:00:53;14.90;;;5.68;;
32874;SDS011;40468;42.128;24.750;2024-01-30T01:02:25;11.88;;;5.63;;
32874;SDS011;40468;42.128;24.750;2024-01-30T01:03:56;12.38;;;5.63;;
32874;SDS011;40468;42.128;24.750;2024-01-30T01:05:28;12.73;;;5.55;;
32874;SDS011;40468;42.128;24.750;2024-01-30T01:07:00;12.25;;;5.07;;
32874;SDS011;40468;42.128;24.750;2024-01-30T01:08:30;11.98;;;5.18;;
32874;SDS011;40468;42.128;24.750;2024-01-30T01:10:02;11.93;;;5.63;;
32874;SDS011;40468;42.128;24.750;2024-01-30T01:11:34;11.90;;;5.20;;
32874;SDS011;40468;42.128;24.750;2024-01-30T01:13:06;13.23;;;5.72;;
32874;SDS011;40468;42.128;24.750;2024-01-30T01:14:38;14.75;;;5.28;;
32874;SDS011;40468;42.128;24.750;2024-01-30T01:16:09;11.07;;;4.90;;
32874;SDS011;40468;42.128;24.750;2024-01-30T01:17:40;10.02;;;4.65;;
32874;SDS011;40468;42.128;24.750;2024-01-30T01:19:12;12.63;;;5.28;;
32874;SDS011;40468;42.128;24.750;2024-01-30T01:20:43;9.30;;;4.22;;
32874;SDS011;40468;42.128;24.750;2024-01-30T01:22:15;12.30;;;5.28;;
32874;SDS011;40468;42.128;24.750;2024-01-30T01:23:47;12.60;;;4.75;;
32874;SDS011;40468;42.128;24.750;2024-01-30T01:25:19;9.98;;;4.45;;
32874;SDS011;40468;42.128;24.750;2024-01-30T01:26:50;10.05;;;4.53;;
32874;SDS011;40468;42.128;24.750;2024-01-30T01:28:21;12.68;;;5.00;;
32874;SDS011;40468;42.128;24.750;2024-01-30T01:29:53;13.05;;;5.20;;
32874;SDS011;40468;42.128;24.750;2024-01-30T01:31:25;14.60;;;5.30;;
32874;SDS011;40468;42.128;24.750;2024-01-30T01:32:59;14.00;;;5.75;;
32874;SDS011;40468;42.128;24.750;2024-01-30T01:34:32;14.15;;;6.35;;
32874;SDS011;40468;42.128;24.750;2024-01-30T01:36:04;13.75;;;5.78;;
32874;SDS011;40468;42.128;24.750;2024-01-30T01:37:37;14.15;;;5.53;;
32874;SDS011;40468;42.128;24.750;2024-01-30T01:39:08;14.32;;;6.25;;
32874;SDS011;40468;42.128;24.750;2024-01-30T01:40:39;13.82;;;5.55;;
32874;SDS011;40468;42.128;24.750;2024-01-30T01:42:11;15.30;;;5.45;;
32874;SDS011;40468;42.128;24.750;2024-01-30T01:43:42;12.52;;;5.32;;
32874;SDS011;40468;42.128;24.750;2024-01-30T01:45:15;14.65;;;6.10;;
32874;SDS011;40468;42.128;24.750;2024-01-30T01:46:45;12.82;;;5.45;;
32874;SDS011;40468;42.128;24.750;2024-01-30T01:48:18;12.43;;;5.93;;
32874;SDS011;40468;42.128;24.750;2024-01-30T01:49:50;14.38;;;5.20;;
32874;SDS011;40468;42.128;24.750;2024-01-30T01:51:22;16.85;;;5.65;;
32874;SDS011;40468;42.128;24.750;2024-01-30T01:52:55;11.27;;;4.90;;
32874;SDS011;40468;42.128;24.750;2024-01-30T01:54:27;11.50;;;4.60;;
32874;SDS011;40468;42.128;24.750;2024-01-30T01:55:59;11.93;;;4.97;;
32874;SDS011;40468;42.128;24.750;2024-01-30T01:57:31;12.35;;;4.60;;
32874;SDS011;40468;42.128;24.750;2024-01-30T01:59:05;11.13;;;4.43;;
32874;SDS011;40468;42.128;24.750;2024-01-30T02:00:39;10.88;;;4.55;;
32874;SDS011;40468;42.128;24.750;2024-01-30T02:02:11;9.50;;;4.35;;
32874;SDS011;40468;42.128;24.750;2024-01-30T02:03:46;9.30;;;4.45;;
32874;SDS011;40468;42.128;24.750;2024-01-30T02:05:18;12.95;;;4.57;;
32874;SDS011;40468;42.128;24.750;2024-01-30T02:06:49;8.38;;;4.10;;
32874;SDS011;40468;42.128;24.750;2024-01-30T02:08:21;9.75;;;4.55;;
32874;SDS011;40468;42.128;24.750;2024-01-30T02:09:52;11.63;;;4.20;;
32874;SDS011;40468;42.128;24.750;2024-01-30T02:11:24;11.73;;;4.93;;
32874;SDS011;40468;42.128;24.750;2024-01-30T02:12:55;10.02;;;4.00;;
32874;SDS011;40468;42.128;24.750;2024-01-30T02:14:27;10.55;;;4.68;;
32874;SDS011;40468;42.128;24.750;2024-01-30T02:16:00;9.35;;;4.20;;
32874;SDS011;40468;42.128;24.750;2024-01-30T02:17:31;11.47;;;4.20;;
32874;SDS011;40468;42.128;24.750;2024-01-30T02:19:03;12.18;;;4.90;;
32874;SDS011;40468;42.128;24.750;2024-01-30T02:20:34;10.73;;;4.32;;
32874;SDS011;40468;42.128;24.750;2024-01-30T02:22:08;10.60;;;4.60;;
32874;SDS011;40468;42.128;24.750;2024-01-30T02:23:39;10.30;;;4.10;;
32874;SDS011;40468;42.128;24.750;2024-01-30T02:26:44;10.18;;;4.53;;
32874;SDS011;40468;42.128;24.750;2024-01-30T02:28:15;11.52;;;4.75;;
32874;SDS011;40468;42.128;24.750;2024-01-30T02:29:46;12.68;;;5.07;;
32874;SDS011;40468;42.128;24.750;2024-01-30T02:31:18;11.90;;;4.97;;
32874;SDS011;40468;42.128;24.750;2024-01-30T02:32:49;12.57;;;4.60;;
32874;SDS011;40468;42.128;24.750;2024-01-30T02:34:20;8.90;;;4.32;;
32874;SDS011;40468;42.128;24.750;2024-01-30T02:35:51;10.68;;;4.97;;
32874;SDS011;40468;42.128;24.750;2024-01-30T02:37:24;12.45;;;5.88;;
32874;SDS011;40468;42.128;24.750;2024-01-30T02:38:55;13.63;;;5.68;;
32874;SDS011;40468;42.128;24.750;2024-01-30T02:40:27;12.00;;;5.07;;
32874;SDS011;40468;42.128;24.750;2024-01-30T02:41:58;11.05;;;4.75;;
32874;SDS011;40468;42.128;24.750;2024-01-30T02:43:29;12.30;;;5.32;;
32874;SDS011;40468;42.128;24.750;2024-01-30T02:45:00;11.15;;;5.25;;
32874;SDS011;40468;42.128;24.750;2024-01-30T02:46:32;14.77;;;6.00;;
32874;SDS011;40468;42.128;24.750;2024-01-30T02:48:03;16.15;;;5.78;;
32874;SDS011;40468;42.128;24.750;2024-01-30T02:49:35;12.85;;;5.63;;
32874;SDS011;40468;42.128;24.750;2024-01-30T02:51:06;11.40;;;5.25;;
32874;SDS011;40468;42.128;24.750;2024-01-30T02:52:39;11.30;;;4.78;;
32874;SDS011;40468;42.128;24.750;2024-01-30T02:54:10;11.32;;;5.10;;
32874;SDS011;40468;42.128;24.750;2024-01-30T02:55:42;10.75;;;5.00;;
32874;SDS011;40468;42.128;24.750;2024-01-30T02:57:12;15.18;;;5.72;;
32874;SDS011;40468;42.128;24.750;2024-01-30T02:58:44;11.82;;;5.03;;
32874;SDS011;40468;42.128;24.750;2024-01-30T03:00:15;11.05;;;5.35;;
32874;SDS011;40468;42.128;24.750;2024-01-30T03:01:47;11.27;;;5.32;;
32874;SDS011;40468;42.128;24.750;2024-01-30T03:03:18;11.95;;;4.90;;
32874;SDS011;40468;42.128;24.750;2024-01-30T03:04:49;11.75;;;5.15;;
32874;SDS011;40468;42.128;24.750;2024-01-30T03:06:20;15.48;;;5.43;;
32874;SDS011;40468;42.128;24.750;2024-01-30T03:07:54;14.55;;;5.75;;
32874;SDS011;40468;42.128;24.750;2024-01-30T03:09:25;12.75;;;5.30;;
32874;SDS011;40468;42.128;24.750;2024-01-30T03:10:57;11.45;;;5.32;;
32874;SDS011;40468;42.128;24.750;2024-01-30T03:12:27;11.60;;;5.60;;
32874;SDS011;40468;42.128;24.750;2024-01-30T03:13:59;20.58;;;6.43;;
32874;SDS011;40468;42.128;24.750;2024-01-30T03:15:30;13.90;;;5.50;;
32874;SDS011;40468;42.128;24.750;2024-01-30T03:17:02;12.68;;;5.78;;
32874;SDS011;40468;42.128;24.750;2024-01-30T03:18:33;16.33;;;5.35;;
32874;SDS011;40468;42.128;24.750;2024-01-30T03:20:05;15.85;;;5.97;;
32874;SDS011;40468;42.128;24.750;2024-01-30T03:21:37;14.23;;;6.15;;
32874;SDS011;40468;42.128;24.750;2024-01-30T03:23:10;12.75;;;5.93;;
32874;SDS011;40468;42.128;24.750;2024-01-30T03:24:40;12.13;;;5.63;;
32874;SDS011;40468;42.128;24.750;2024-01-30T03:26:12;12.90;;;6.18;;
32874;SDS011;40468;42.128;24.750;2024-01-30T03:27:44;13.35;;;6.40;;
32874;SDS011;40468;42.128;24.750;2024-01-30T03:29:16;10.95;;;5.50;;
32874;SDS011;40468;42.128;24.750;2024-01-30T03:30:47;13.25;;;5.82;;
32874;SDS011;40468;42.128;24.750;2024-01-30T03:32:19;14.95;;;6.45;;
32874;SDS011;40468;42.128;24.750;2024-01-30T03:33:50;17.35;;;6.38;;
32874;SDS011;40468;42.128;24.750;2024-01-30T03:35:21;13.68;;;6.63;;
32874;SDS011;40468;42.128;24.750;2024-01-30T03:36:53;13.35;;;5.68;;
32874;SDS011;40468;42.128;24.750;2024-01-30T03:38:25;15.10;;;6.32;;
32874;SDS011;40468;42.128;24.750;2024-01-30T03:39:57;15.43;;;6.95;;
32874;SDS011;40468;42.128;24.750;2024-01-30T03:41:28;15.73;;;6.68;;
32874;SDS011;40468;42.128;24.750;2024-01-30T03:43:00;13.45;;;6.38;;
32874;SDS011;40468;42.128;24.750;2024-01-30T03:44:30;22.75;;;6.60;;
32874;SDS011;40468;42.128;24.750;2024-01-30T03:46:02;16.25;;;6.97;;
32874;SDS011;40468;42.128;24.750;2024-01-30T03:47:33;14.32;;;6.40;;
32874;SDS011;40468;42.128;24.750;2024-01-30T03:49:05;14.93;;;6.35;;
32874;SDS011;40468;42.128;24.750;2024-01-30T03:50:36;14.50;;;5.93;;
32874;SDS011;40468;42.128;24.750;2024-01-30T03:52:08;12.63;;;5.72;;
32874;SDS011;40468;42.128;24.750;2024-01-30T03:53:40;15.63;;;7.00;;
32874;SDS011;40468;42.128;24.750;2024-01-30T03:55:12;14.38;;;6.55;;
32874;SDS011;40468;42.128;24.750;2024-01-30T03:56:43;15.55;;;6.78;;
32874;SDS011;40468;42.128;24.750;2024-01-30T03:58:15;13.43;;;6.18;;
32874;SDS011;40468;42.128;24.750;2024-01-30T03:59:46;18.20;;;6.35;;
32874;SDS011;40468;42.128;24.750;2024-01-30T04:01:18;14.20;;;6.05;;
32874;SDS011;40468;42.128;24.750;2024-01-30T04:02:49;14.35;;;6.70;;
32874;SDS011;40468;42.128;24.750;2024-01-30T04:04:21;16.00;;;6.22;;
32874;SDS011;40468;42.128;24.750;2024-01-30T04:05:52;20.20;;;6.82;;
32874;SDS011;40468;42.128;24.750;2024-01-30T04:07:24;16.42;;;6.47;;
32874;SDS011;40468;42.128;24.750;2024-01-30T04:08:56;16.83;;;6.25;;
32874;SDS011;40468;42.128;24.750;2024-01-30T04:10:28;13.13;;;6.28;;
32874;SDS011;40468;42.128;24.750;2024-01-30T04:11:59;13.63;;;6.28;;
32874;SDS011;40468;42.128;24.750;2024-01-30T04:13:32;14.95;;;6.22;;
32874;SDS011;40468;42.128;24.750;2024-01-30T04:15:05;14.43;;;6.95;;
32874;SDS011;40468;42.128;24.750;2024-01-30T04:16:36;17.85;;;6.45;;
32874;SDS011;40468;42.128;24.750;2024-01-30T04:18:08;18.25;;;7.30;;
32874;SDS011;40468;42.128;24.750;2024-01-30T04:19:39;17.05;;;6.90;;
32874;SDS011;40468;42.128;24.750;2024-01-30T04:21:12;17.80;;;6.95;;
32874;SDS011;40468;42.128;24.750;2024-01-30T04:22:43;15.00;;;6.68;;
32874;SDS011;40468;42.128;24.750;2024-01-30T04:24:16;14.95;;;6.35;;
32874;SDS011;40468;42.128;24.750;2024-01-30T04:25:48;14.93;;;6.32;;
32874;SDS011;40468;42.128;24.750;2024-01-30T04:27:20;15.05;;;7.28;;
32874;SDS011;40468;42.128;24.750;2024-01-30T04:28:51;17.70;;;6.50;;
32874;SDS011;40468;42.128;24.750;2024-01-30T04:30:23;13.82;;;6.50;;
32874;SDS011;40468;42.128;24.750;2024-01-30T04:31:53;16.65;;;6.82;;
32874;SDS011;40468;42.128;24.750;2024-01-30T04:33:25;14.05;;;6.90;;
32874;SDS011;40468;42.128;24.750;2024-01-30T04:34:56;16.58;;;6.57;;
32874;SDS011;40468;42.128;24.750;2024-01-30T04:36:28;18.25;;;6.55;;
32874;SDS011;40468;42.128;24.750;2024-01-30T04:37:59;15.27;;;6.50;;
32874;SDS011;40468;42.128;24.750;2024-01-30T04:39:32;13.02;;;6.30;;
32874;SDS011;40468;42.128;24.750;2024-01-30T04:41:04;15.88;;;7.22;;
32874;SDS011;40468;42.128;24.750;2024-01-30T04:42:35;15.75;;;7.60;;
32874;SDS011;40468;42.128;24.750;2024-01-30T04:44:06;18.75;;;8.50;;
32874;SDS011;40468;42.128;24.750;2024-01-30T04:45:37;24.73;;;9.35;;
32874;SDS011;40468;42.128;24.750;2024-01-30T04:47:09;21.95;;;8.63;;
32874;SDS011;40468;42.128;24.750;2024-01-30T04:48:42;25.05;;;9.32;;
32874;SDS011;40468;42.128;24.750;2024-01-30T04:50:13;24.27;;;9.05;;
32874;SDS011;40468;42.128;24.750;2024-01-30T04:51:44;20.92;;;8.90;;
32874;SDS011;40468;42.128;24.750;2024-01-30T04:53:16;17.58;;;7.82;;
32874;SDS011;40468;42.128;24.750;2024-01-30T04:54:48;17.33;;;8.27;;
32874;SDS011;40468;42.128;24.750;2024-01-30T04:56:20;22.10;;;8.93;;
32874;SDS011;40468;42.128;24.750;2024-01-30T04:57:51;17.90;;;7.65;;
32874;SDS011;40468;42.128;24.750;2024-01-30T04:59:23;21.83;;;8.55;;
32874;SDS011;40468;42.128;24.750;2024-01-30T05:00:53;20.70;;;8.55;;
32874;SDS011;40468;42.128;24.750;2024-01-30T05:02:25;18.80;;;8.07;;
32874;SDS011;40468;42.128;24.750;2024-01-30T05:03:56;19.27;;;7.82;;
32874;SDS011;40468;42.128;24.750;2024-01-30T05:05:27;19.38;;;8.10;;
32874;SDS011;40468;42.128;24.750;2024-01-30T05:06:59;19.48;;;8.40;;
32874;SDS011;40468;42.128;24.750;2024-01-30T05:08:30;19.67;;;7.70;;
32874;SDS011;40468;42.128;24.750;2024-01-30T05:10:04;25.05;;;8.70;;
32874;SDS011;40468;42.128;24.750;2024-01-30T05:11:36;19.67;;;8.30;;
32874;SDS011;40468;42.128;24.750;2024-01-30T05:13:09;18.77;;;9.13;;
32874;SDS011;40468;42.128;24.750;2024-01-30T05:14:39;18.77;;;8.60;;
32874;SDS011;40468;42.128;24.750;2024-01-30T05:16:11;20.02;;;8.75;;
32874;SDS011;40468;42.128;24.750;2024-01-30T05:17:42;22.55;;;9.35;;
32874;SDS011;40468;42.128;24.750;2024-01-30T05:19:14;22.77;;;9.20;;
32874;SDS011;40468;42.128;24.750;2024-01-30T05:20:45;18.85;;;9.10;;
32874;SDS011;40468;42.128;24.750;2024-01-30T05:22:16;26.50;;;9.73;;
32874;SDS011;40468;42.128;24.750;2024-01-30T05:23:48;20.20;;;8.75;;
32874;SDS011;40468;42.128;24.750;2024-01-30T05:25:21;19.40;;;8.05;;
32874;SDS011;40468;42.128;24.750;2024-01-30T05:26:53;18.63;;;7.57;;
32874;SDS011;40468;42.128;24.750;2024-01-30T05:28:25;17.88;;;8.20;;
32874;SDS011;40468;42.128;24.750;2024-01-30T05:29:56;17.50;;;8.65;;
32874;SDS011;40468;42.128;24.750;2024-01-30T05:31:27;18.17;;;8.32;;
32874;SDS011;40468;42.128;24.750;2024-01-30T05:32:58;21.48;;;8.60;;
32874;SDS011;40468;42.128;24.750;2024-01-30T05:34:30;23.98;;;9.90;;
32874;SDS011;40468;42.128;24.750;2024-01-30T05:36:02;20.80;;;9.15;;
32874;SDS011;40468;42.128;24.750;2024-01-30T05:37:34;20.27;;;8.77;;
32874;SDS011;40468;42.128;24.750;2024-01-30T05:39:06;23.80;;;9.45;;
32874;SDS011;40468;42.128;24.750;2024-01-30T05:40:39;26.23;;;9.40;;
32874;SDS011;40468;42.128;24.750;2024-01-30T05:43:41;22.83;;;8.43;;
32874;SDS011;40468;42.128;24.750;2024-01-30T05:45:13;24.48;;;9.27;;
32874;SDS011;40468;42.128;24.750;2024-01-30T05:46:45;20.70;;;9.07;;
32874;SDS011;40468;42.128;24.750;2024-01-30T05:48:16;21.98;;;9.15;;
32874;SDS011;40468;42.128;24.750;2024-01-30T05:49:48;22.30;;;9.95;;
32874;SDS011;40468;42.128;24.750;2024-01-30T05:51:18;27.23;;;10.13;;
32874;SDS011;40468;42.128;24.750;2024-01-30T05:52:50;23.38;;;10.10;;
32874;SDS011;40468;42.128;24.750;2024-01-30T05:54:21;19.35;;;9.13;;
32874;SDS011;40468;42.128;24.750;2024-01-30T05:55:54;26.63;;;9.40;;
32874;SDS011;40468;42.128;24.750;2024-01-30T05:57:25;24.02;;;9.75;;
32874;SDS011;40468;42.128;24.750;2024-01-30T05:58:57;25.20;;;10.13;;
32874;SDS011;40468;42.128;24.750;2024-01-30T06:00:27;22.30;;;9.45;;
32874;SDS011;40468;42.128;24.750;2024-01-30T06:01:59;24.55;;;9.65;;
32874;SDS011;40468;42.128;24.750;2024-01-30T06:03:30;23.13;;;10.65;;
32874;SDS011;40468;42.128;24.750;2024-01-30T06:05:02;23.95;;;10.68;;
32874;SDS011;40468;42.128;24.750;2024-01-30T06:06:33;23.85;;;10.52;;
32874;SDS011;40468;42.128;24.750;2024-01-30T06:08:05;24.98;;;9.30;;
32874;SDS011;40468;42.128;24.750;2024-01-30T06:09:36;25.73;;;10.20;;
32874;SDS011;40468;42.128;24.750;2024-01-30T06:11:11;25.35;;;9.68;;
32874;SDS011;40468;42.128;24.750;2024-01-30T06:12:42;32.13;;;13.13;;
32874;SDS011;40468;42.128;24.750;2024-01-30T06:14:14;40.60;;;14.85;;
32874;SDS011;40468;42.128;24.750;2024-01-30T06:15:45;37.42;;;14.20;;
32874;SDS011;40468;42.128;24.750;2024-01-30T06:17:17;27.65;;;11.85;;
32874;SDS011;40468;42.128;24.750;2024-01-30T06:18:48;29.58;;;12.63;;
32874;SDS011;40468;42.128;24.750;2024-01-30T06:20:20;52.88;;;22.90;;
32874;SDS011;40468;42.128;24.750;2024-01-30T06:21:50;74.70;;;28.73;;
32874;SDS011;40468;42.128;24.750;2024-01-30T06:23:22;38.28;;;14.50;;
32874;SDS011;40468;42.128;24.750;2024-01-30T06:24:53;28.05;;;10.18;;
32874;SDS011;40468;42.128;24.750;2024-01-30T06:26:26;30.83;;;11.15;;
32874;SDS011;40468;42.128;24.750;2024-01-30T06:27:58;24.90;;;10.80;;
32874;SDS011;40468;42.128;24.750;2024-01-30T06:29:29;20.90;;;9.70;;
32874;SDS011;40468;42.128;24.750;2024-01-30T06:31:00;20.60;;;9.13;;
32874;SDS011;40468;42.128;24.750;2024-01-30T06:32:32;24.73;;;10.27;;
32874;SDS011;40468;42.128;24.750;2024-01-30T06:34:04;25.33;;;9.32;;
32874;SDS011;40468;42.128;24.750;2024-01-30T06:35:36;20.02;;;9.43;;
32874;SDS011;40468;42.128;24.750;2024-01-30T06:37:10;21.73;;;10.70;;
32874;SDS011;40468;42.128;24.750;2024-01-30T06:38:42;24.88;;;10.95;;
32874;SDS011;40468;42.128;24.750;2024-01-30T06:40:13;27.80;;;11.52;;
32874;SDS011;40468;42.128;24.750;2024-01-30T06:41:46;25.30;;;10.85;;
32874;SDS011;40468;42.128;24.750;2024-01-30T06:43:17;22.35;;;9.98;;
32874;SDS011;40468;42.128;24.750;2024-01-30T06:44:49;22.33;;;9.77;;
32874;SDS011;40468;42.128;24.750;2024-01-30T06:46:20;29.42;;;10.27;;
32874;SDS011;40468;42.128;24.750;2024-01-30T06:47:52;19.65;;;9.23;;
32874;SDS011;40468;42.128;24.750;2024-01-30T06:49:23;22.08;;;9.50;;
32874;SDS011;40468;42.128;24.750;2024-01-30T06:50:55;144.00;;;51.13;;
32874;SDS011;40468;42.128;24.750;2024-01-30T06:52:28;215.93;;;76.13;;
32874;SDS011;40468;42.128;24.750;2024-01-30T06:53:59;100.63;;;43.83;;
32874;SDS011;40468;42.128;24.750;2024-01-30T06:55:31;36.88;;;16.88;;
32874;SDS011;40468;42.128;24.750;2024-01-30T06:57:03;23.13;;;11.45;;
32874;SDS011;40468;42.128;24.750;2024-01-30T06:58:37;24.67;;;11.00;;
32874;SDS011;40468;42.128;24.750;2024-01-30T07:00:08;17.83;;;8.63;;
32874;SDS011;40468;42.128;24.750;2024-01-30T07:01:40;27.52;;;9.77;;
32874;SDS011;40468;42.128;24.750;2024-01-30T07:03:11;23.73;;;9.88;;
32874;SDS011;40468;42.128;24.750;2024-01-30T07:04:43;24.85;;;10.80;;
32874;SDS011;40468;42.128;24.750;2024-01-30T07:06:14;25.02;;;10.35;;
32874;SDS011;40468;42.128;24.750;2024-01-30T07:07:46;31.48;;;10.27;;
32874;SDS011;40468;42.128;24.750;2024-01-30T07:09:17;21.83;;;9.57;;
32874;SDS011;40468;42.128;24.750;2024-01-30T07:10:49;22.77;;;9.68;;
32874;SDS011;40468;42.128;24.750;2024-01-30T07:12:22;22.35;;;10.18;;
32874;SDS011;40468;42.128;24.750;2024-01-30T07:13:55;22.95;;;9.30;;
32874;SDS011;40468;42.128;24.750;2024-01-30T07:15:27;25.98;;;10.27;;
32874;SDS011;40468;42.128;24.750;2024-01-30T07:16:59;21.98;;;9.32;;
32874;SDS011;40468;42.128;24.750;2024-01-30T07:18:31;20.10;;;9.55;;
32874;SDS011;40468;42.128;24.750;2024-01-30T07:20:02;22.50;;;9.75;;
32874;SDS011;40468;42.128;24.750;2024-01-30T07:21:35;24.55;;;9.85;;
32874;SDS011;40468;42.128;24.750;2024-01-30T07:23:06;21.95;;;9.43;;
32874;SDS011;40468;42.128;24.750;2024-01-30T07:24:41;19.48;;;8.60;;
32874;SDS011;40468;42.128;24.750;2024-01-30T07:26:17;22.08;;;9.40;;
32874;SDS011;40468;42.128;24.750;2024-01-30T07:27:49;21.85;;;8.18;;
32874;SDS011;40468;42.128;24.750;2024-01-30T07:29:21;22.13;;;8.75;;
32874;SDS011;40468;42.128;24.750;2024-01-30T07:30:56;19.58;;;9.52;;
32874;SDS011;40468;42.128;24.750;2024-01-30T07:32:28;21.00;;;9.95;;
32874;SDS011;40468;42.128;24.750;2024-01-30T07:33:59;17.42;;;8.10;;
32874;SDS011;40468;42.128;24.750;2024-01-30T07:35:31;20.73;;;8.02;;
32874;SDS011;40468;42.128;24.750;2024-01-30T07:37:02;28.27;;;9.00;;
32874;SDS011;40468;42.128;24.750;2024-01-30T07:38:34;24.37;;;9.30;;
32874;SDS011;40468;42.128;24.750;2024-01-30T07:40:06;23.15;;;10.27;;
32874;SDS011;40468;42.128;24.750;2024-01-30T07:41:41;26.25;;;9.85;;
32874;SDS011;40468;42.128;24.750;2024-01-30T07:43:13;29.63;;;10.05;;
32874;SDS011;40468;42.128;24.750;2024-01-30T07:44:46;22.85;;;9.32;;
32874;SDS011;40468;42.128;24.750;2024-01-30T07:46:16;24.63;;;9.73;;
32874;SDS011;40468;42.128;24.750;2024-01-30T07:47:49;20.42;;;9.02;;
32874;SDS011;40468;42.128;24.750;2024-01-30T07:49:21;21.20;;;8.55;;
32874;SDS011;40468;42.128;24.750;2024-01-30T07:50:52;17.63;;;7.53;;
32874;SDS011;40468;42.128;24.750;2024-01-30T07:52:23;21.65;;;8.50;;
32874;SDS011;40468;42.128;24.750;2024-01-30T07:53:54;23.88;;;8.10;;
32874;SDS011;40468;42.128;24.750;2024-01-30T07:55:27;19.70;;;8.07;;
32874;SDS011;40468;42.128;24.750;2024-01-30T07:56:59;16.95;;;8.45;;
32874;SDS011;40468;42.128;24.750;2024-01-30T07:58:32;24.35;;;8.32;;
32874;SDS011;40468;42.128;24.750;2024-01-30T08:00:03;22.17;;;8.45;;
32874;SDS011;40468;42.128;24.750;2024-01-30T08:01:39;20.88;;;7.68;;
32874;SDS011;40468;42.128;24.750;2024-01-30T08:03:10;19.17;;;7.10;;
32874;SDS011;40468;42.128;24.750;2024-01-30T08:04:42;16.50;;;7.30;;
32874;SDS011;40468;42.128;24.750;2024-01-30T08:06:13;18.90;;;8.05;;
32874;SDS011;40468;42.128;24.750;2024-01-30T08:07:45;17.58;;;7.28;;
32874;SDS011;40468;42.128;24.750;2024-01-30T08:09:16;19.15;;;7.63;;
32874;SDS011;40468;42.128;24.750;2024-01-30T08:10:48;16.23;;;6.47;;
32874;SDS011;40468;42.128;24.750;2024-01-30T08:12:20;21.38;;;9.68;;
32874;SDS011;40468;42.128;24.750;2024-01-30T08:13:53;21.85;;;9.55;;
32874;SDS011;40468;42.128;24.750;2024-01-30T08:15:24;21.98;;;9.05;;
32874;SDS011;40468;42.128;24.750;2024-01-30T08:16:56;19.85;;;9.43;;
32874;SDS011;40468;42.128;24.750;2024-01-30T08:18:27;21.45;;;8.85;;
32874;SDS011;40468;42.128;24.750;2024-01-30T08:19:59;15.63;;;6.43;;
32874;SDS011;40468;42.128;24.750;2024-01-30T08:21:31;17.17;;;7.80;;
32874;SDS011;40468;42.128;24.750;2024-01-30T08:23:06;15.55;;;5.85;;
32874;SDS011;40468;42.128;24.750;2024-01-30T08:24:38;12.68;;;5.57;;
32874;SDS011;40468;42.128;24.750;2024-01-30T08:26:10;12.15;;;5.70;;
32874;SDS011;40468;42.128;24.750;2024-01-30T08:27:42;12.60;;;5.07;;
32874;SDS011;40468;42.128;24.750;2024-01-30T08:29:16;12.90;;;5.53;;
32874;SDS011;40468;42.128;24.750;2024-01-30T08:30:47;13.93;;;5.45;;
32874;SDS011;40468;42.128;24.750;2024-01-30T08:32:19;9.80;;;4.68;;
32874;SDS011;40468;42.128;24.750;2024-01-30T08:33:50;13.43;;;5.65;;
32874;SDS011;40468;42.128;24.750;2024-01-30T08:35:22;11.00;;;5.13;;
32874;SDS011;40468;42.128;24.750;2024-01-30T08:36:53;12.80;;;5.68;;
32874;SDS011;40468;42.128;24.750;2024-01-30T08:38:25;12.70;;;5.45;;
32874;SDS011;40468;42.128;24.750;2024-01-30T08:39:57;13.48;;;6.00;;
32874;SDS011;40468;42.128;24.750;2024-01-30T08:41:28;13.95;;;5.80;;
32874;SDS011;40468;42.128;24.750;2024-01-30T08:43:00;13.40;;;5.50;;
32874;SDS011;40468;42.128;24.750;2024-01-30T08:44:32;17.30;;;5.53;;
32874;SDS011;40468;42.128;24.750;2024-01-30T08:46:04;13.98;;;4.97;;
32874;SDS011;40468;42.128;24.750;2024-01-30T08:47:35;10.50;;;5.07;;
32874;SDS011;40468;42.128;24.750;2024-01-30T08:49:07;9.75;;;4.28;;
32874;SDS011;40468;42.128;24.750;2024-01-30T08:50:39;18.75;;;6.03;;
32874;SDS011;40468;42.128;24.750;2024-01-30T08:52:10;10.60;;;5.07;;
32874;SDS011;40468;42.128;24.750;2024-01-30T08:53:42;12.18;;;5.70;;
32874;SDS011;40468;42.128;24.750;2024-01-30T08:55:13;11.48;;;5.43;;
32874;SDS011;40468;42.128;24.750;2024-01-30T08:56:45;11.30;;;4.85;;
32874;SDS011;40468;42.128;24.750;2024-01-30T08:58:16;9.65;;;4.30;;
32874;SDS011;40468;42.128;24.750;2024-01-30T08:59:50;19.33;;;7.15;;